• Join FlightAware (Why Join?)
  • Login
  • US Flag 
03:07AM EDT


 

Airport Tracker/Info


-or-


 

Live Flight TrackerFlight Track Log ✈ SWA718 ✈ 23-Apr-2013 ✈ KMCO - KMDW

Flight Track Log - Related Links

Times and Time Zones

All times are in EDT time to prevent confusion due to time zone crossing. See the SWA718 flight status page for this flight to view local times or setup timezone preferences in your user account.

Time Position Orientation Groundspeed Altitude Reporting Facility
EDT Latitude Longitude Course Direction KTS MPH feet Rate Location/Type
07:41PM 28.4333 -81.3000 348° North 163 188 600  Level Orlando TRACON
07:42PM 28.5000 -81.3167 348° North 215 247 3,500 2,040 Climbing Orlando TRACON
07:43PM 28.5500 -81.3500 330° Northwest 273 314 5,600 1,980 Climbing Orlando TRACON
07:45PM 28.5311 -81.5458 264° West 275 316 10,000 1,860 Climbing Jacksonville Center
07:46PM 28.5217 -81.6475 264° West 291 335 11,700 2,220 Climbing Jacksonville Center
07:47PM 28.5144 -81.7633 266° West 343 395 14,500 3,000 Climbing Jacksonville Center
07:48PM 28.5319 -81.8836 279° West 364 419 17,700 2,880 Climbing Jacksonville Center
07:49PM 28.5497 -82.0039 280° West 380 437 20,300 2,640 Climbing Jacksonville Center
07:50PM 28.5672 -82.1292 279° West 396 456 23,000 2,400 Climbing Jacksonville Center
07:51PM 28.5867 -82.2542 280° West 401 461 25,100 1,800 Climbing Jacksonville Center
07:52PM 28.6081 -82.3842 281° West 414 476 26,700 1,740 Climbing Jacksonville Center
07:53PM 28.7000 -82.4547 326° Northwest 393 452 28,600 2,400 Climbing Jacksonville Center
07:54PM 28.8172 -82.4969 342° North 391 450 31,500 2,640 Climbing Jacksonville Center
07:55PM 28.9217 -82.5367 342° North 391 450 33,900 1,920 Climbing Jacksonville Center
07:56PM 29.0239 -82.5767 341° North 396 456 35,400 1,500 Climbing Jacksonville Center
07:57PM 29.1283 -82.6144 342° North 396 456 36,900 1,260 Climbing Jacksonville Center
07:58PM 29.2267 -82.6522 341° North 384 442 38,000 540 Climbing Jacksonville Center
07:59PM 29.3311 -82.6947 340° North 384 442 38,000  Level Jacksonville Center
08:00PM 29.4333 -82.7328 342° North 384 442 38,000  Level Jacksonville Center
08:01PM 29.5253 -82.7733 339° North 384 442 38,000  Level Jacksonville Center
08:02PM 29.6319 -82.8114 343° North 389 448 38,000  Level Jacksonville Center
08:03PM 29.7342 -82.8519 341° North 389 448 38,000  Level Jacksonville Center
08:04PM 29.8344 -82.8903 342° North 384 442 38,000  Level Jacksonville Center
08:05PM 29.9344 -82.9308 341° North 384 442 38,000  Level Jacksonville Center
08:06PM 30.0369 -82.9669 343° North 384 442 38,000  Level Jacksonville Center
08:07PM 30.1369 -83.0078 341° North 379 436 38,000  Level Jacksonville Center
08:08PM 30.2372 -83.0464 342° North 379 436 38,000  Level Jacksonville Center
08:09PM 30.3417 -83.0875 341° North 384 442 38,000  Level Jacksonville Center
08:10PM 30.4397 -83.1264 341° North 379 436 38,000  Level Jacksonville Center
08:11PM 30.5439 -83.1675 341° North 384 442 38,000  Level Jacksonville Center
08:12PM 30.6442 -83.2089 340° North 384 442 38,000  Level Jacksonville Center
08:13PM 30.7461 -83.2503 341° North 384 442 38,000  Level Jacksonville Center
08:14PM 30.8483 -83.2894 342° North 384 442 38,000  Level Jacksonville Center
08:15PM 30.9506 -83.3311 341° North 384 442 38,000  Level Jacksonville Center
08:16PM 31.0528 -83.3728 341° North 384 442 38,000  Level Jacksonville Center
08:18PM 31.2861 -83.4678 341° North 399 459 38,000  Level Atlanta Center
08:19PM 31.3886 -83.5086 341° North 399 459 38,000  Level Atlanta Center
08:20PM 31.4931 -83.5494 342° North 394 453 38,000  Level Atlanta Center
08:21PM 31.5956 -83.5903 341° North 389 448 38,000  Level Atlanta Center
08:22PM 31.6769 -83.6264 339° North 389 448 38,000  Level Atlanta Center
08:23PM 31.8003 -83.6747 342° North 389 448 38,000  Level Atlanta Center
08:24PM 31.8986 -83.7136 341° North 395 455 38,000  Level Atlanta Center
08:25PM 31.9989 -83.7547 341° North 390 449 38,000  Level Atlanta Center
08:26PM 32.1011 -83.7986 340° North 390 449 38,000  Level Atlanta Center
08:27PM 32.2036 -83.8400 341° North 390 449 38,000  Level Atlanta Center
08:28PM 32.3100 -83.8839 341° North 390 449 38,000  Level Atlanta Center
08:29PM 32.4144 -83.9281 340° North 390 449 38,000  Level Atlanta Center
08:30PM 32.5208 -83.9697 342° North 390 449 38,000  Level Atlanta Center
08:31PM 32.6233 -84.0142 340° North 390 449 38,000  Level Atlanta Center
08:32PM 32.7297 -84.0586 341° North 390 449 38,000  Level Atlanta Center
08:33PM 32.8361 -84.1031 341° North 390 449 38,000  Level Atlanta Center
08:34PM 32.9406 -84.1478 340° North 395 455 38,000  Level Atlanta Center
08:35PM 33.0447 -84.1900 341° North 395 455 38,000  Level Atlanta Center
08:36PM 33.1492 -84.2322 341° North 395 455 38,000  Level Atlanta Center
08:37PM 33.2533 -84.2797 339° North 395 455 38,000  Level Atlanta Center
08:38PM 33.3619 -84.3250 341° North 395 455 38,000  Level Atlanta Center
08:39PM 33.4767 -84.3725 341° North 396 456 38,000  Level Atlanta Center
08:40PM 33.5850 -84.4178 341° North 401 461 38,000  Level Atlanta Center
08:41PM 33.6914 -84.4558 343° North 406 467 38,000  Level Atlanta Center
08:42PM 33.8039 -84.4814 349° North 406 467 38,000  Level Atlanta Center
08:43PM 33.9144 -84.5069 349° North 401 461 38,000  Level Atlanta Center
08:44PM 34.0208 -84.5325 349° North 414 476 38,000  Level Atlanta Center
08:45PM 34.1397 -84.5608 349° North 414 476 38,000  Level Atlanta Center
08:46PM 34.2500 -84.5867 349° North 414 476 38,000  Level Atlanta Center
08:47PM 34.3753 -84.6175 349° North 414 476 38,000  Level Atlanta Center
08:48PM 34.4897 -84.6461 348° North 414 476 38,000  Level Atlanta Center
08:49PM 34.6003 -84.6722 349° North 414 476 38,000  Level Atlanta Center
08:50PM 34.7003 -84.6981 348° North 409 471 38,000  Level Atlanta Center
08:51PM 34.8128 -84.7244 349° North 409 471 38,000  Level Atlanta Center
08:52PM 34.9256 -84.7558 347° North 409 471 38,000  Level Atlanta Center
08:53PM 35.0400 -84.7819 349° North 409 471 38,000  Level Atlanta Center
08:54PM 35.1631 -84.8136 348° North 409 471 38,000  Level Atlanta Center
08:55PM 35.2775 -84.8428 348° North 414 476 38,000  Level Atlanta Center
08:56PM 35.3922 -84.8719 348° North 414 476 38,000  Level Atlanta Center
08:57PM 35.5044 -84.9011 348° North 414 476 38,000  Level Atlanta Center
08:58PM 35.6169 -84.9278 349° North 409 471 38,000  Level Atlanta Center
08:59PM 35.7253 -84.9569 348° North 409 471 38,000  Level Atlanta Center
09:02PM 35.9542 -85.0128 349° North 413 475 38,000  Level Indianapolis Center
09:03PM 36.0706 -85.0367 351° North 411 473 38,000  Level Indianapolis Center
09:04PM 36.1836 -85.0611 350° North 411 473 38,000  Level Indianapolis Center
09:05PM 36.2981 -85.0856 350° North 414 476 38,000  Level Indianapolis Center
09:06PM 36.4136 -85.1106 350° North 419 482 38,000  Level Indianapolis Center
09:07PM 36.5517 -85.1411 350° North 419 482 38,000  Level Indianapolis Center
09:08PM 36.6664 -85.1653 350° North 417 480 38,000  Level Indianapolis Center
09:09PM 36.7825 -85.1908 350° North 423 487 38,000  Level Indianapolis Center
09:10PM 36.8986 -85.2169 350° North 423 487 38,000  Level Indianapolis Center
09:11PM 37.0161 -85.2425 350° North 426 490 38,000  Level Indianapolis Center
09:12PM 37.1428 -85.2708 350° North 426 490 38,000  Level Indianapolis Center
09:13PM 37.2622 -85.2972 350° North 431 496 38,000  Level Indianapolis Center
09:14PM 37.3800 -85.3236 350° North 428 493 38,000  Level Indianapolis Center
09:15PM 37.4983 -85.3489 350° North 429 494 38,000  Level Indianapolis Center
09:16PM 37.6144 -85.3781 349° North 425 489 38,000  Level Indianapolis Center
09:17PM 37.7317 -85.4025 351° North 424 488 38,000  Level Indianapolis Center
09:18PM 37.8553 -85.4297 350° North 429 494 38,000 -300 Level Indianapolis Center
09:19PM 37.9725 -85.4567 350° North 427 491 37,500 -720 Descending Indianapolis Center
09:20PM 38.0872 -85.4819 350° North 420 483 36,600 -960 Descending Indianapolis Center
09:21PM 38.2031 -85.5092 350° North 421 484 35,600 -840 Descending Indianapolis Center
09:22PM 38.3197 -85.5358 350° North 424 488 35,000 -300 Descending Indianapolis Center
09:23PM 38.4369 -85.5614 350° North 426 490 35,000  Level Indianapolis Center
09:24PM 38.5525 -85.5886 350° North 424 488 35,000 -420 Level Indianapolis Center
09:25PM 38.6753 -85.6169 350° North 417 480 34,200 -960 Descending Indianapolis Center
09:26PM 38.7906 -85.6436 350° North 416 479 33,100 -1,080 Descending Indianapolis Center
09:27PM 38.9047 -85.6700 350° North 413 475 32,100 -1,020 Descending Indianapolis Center
09:28PM 39.0183 -85.6969 350° North 413 475 31,100 -1,020 Descending Indianapolis Center
09:29PM 39.1306 -85.7239 349° North 410 472 30,100 -600 Descending Indianapolis Center
09:30PM 39.2422 -85.7492 350° North 407 468 30,000 -60 Descending Indianapolis Center
09:31PM 39.3725 -85.7800 350° North 405 466 30,000  Level Indianapolis Center
09:32PM 39.4819 -85.8058 350° North 401 461 30,000 -240 Level Indianapolis Center
09:33PM 39.5925 -85.8314 350° North 402 463 29,600 -720 Descending Indianapolis Center
09:34PM 39.7003 -85.8578 349° North 397 457 28,600 -1,440 Descending Indianapolis Center
09:35PM 39.8075 -85.8817 350° North 393 452 26,700 -1,920 Descending Indianapolis Center
09:36PM 39.9117 -85.9075 349° North 384 442 24,700 -1,320 Descending Indianapolis Center
09:37PM 40.0122 -85.9331 349° North 371 427 24,000 -360 Descending Indianapolis Center
09:38PM 40.1069 -85.9800 339° North 364 419 24,000 -180 Level Indianapolis Center
09:39PM 40.2017 -86.0250 340° North 363 418 23,700 -720 Descending Chicago Center
09:40PM 40.2981 -86.0706 340° North 366 421 22,700 -1,020 Descending Chicago Center
09:41PM 40.3925 -86.1158 340° North 360 414 21,700 -1,020 Descending Chicago Center
09:42PM 40.4869 -86.1606 340° North 358 412 20,700 -1,080 Descending Chicago Center
09:43PM 40.5928 -86.2111 340° North 346 398 19,500 -1,260 Descending Chicago Center
09:44PM 40.6817 -86.2542 340° North 339 390 18,200 -1,500 Descending Chicago Center
09:45PM 40.7678 -86.2969 339° North 335 386 16,400 -1,740 Descending Chicago Center
09:46PM 40.8528 -86.3383 340° North 328 377 14,700 -1,680 Descending Chicago Center
09:47PM 40.9367 -86.3786 340° North 322 371 13,000 -1,620 Descending Chicago Center
09:48PM 41.0219 -86.4208 340° North 325 374 11,400 -1,200 Descending Chicago Center
09:49PM 41.0867 -86.4908 321° Northwest 303 349 10,600 -720 Descending Chicago Center
09:50PM 41.1383 -86.5722 310° West 288 331 10,000 -300 Descending Chicago Center
09:52PM 41.2006 -86.6678 311° West 284 327 10,000  Level Chicago Center
09:53PM 41.2508 -86.7439 311° West 283 326 10,000 -60 Level Chicago Center
09:54PM 41.3011 -86.8250 310° West 284 327 9,900 -600 Descending Chicago Center
09:55PM 41.3550 -86.9061 312° West 291 335 8,800 -1,020 Descending Chicago Center
09:56PM 41.4061 -86.9856 311° West 287 330 7,900 -1,080 Descending Chicago Center
09:57PM 41.4653 -87.0783 310° West 279 321 6,700 -960 Descending Chicago Center
09:58PM 41.4861 -87.1653 288° West 257 296 6,000 -540 Descending Chicago Center
09:58PM 41.4833 -87.2000 264° West 253 291 6,000 -180 Level Chicago TRACON
09:59PM 41.5000 -87.2833 285° West 255 293 5,800 -540 Descending Chicago TRACON
10:00PM 41.5167 -87.3667 285° West 249 287 5,000 -480 Descending Chicago TRACON
10:01PM 41.5506 -87.4158 313° West 233 268 5,000  Level Chicago Center
10:02PM 41.5858 -87.4692 311° West 201 231 5,000  Level Chicago Center
10:03PM 41.6228 -87.5264 311° West 182 209 5,000 -360 Level Chicago Center
10:04PM 41.6556 -87.5719 314° West 176 203 4,300 -780 Descending Chicago Center
10:05PM 41.6875 -87.6158 314° West 171 197 3,400 -900 Descending Chicago Center
10:06PM 41.7167 -87.6500 319° Northwest 141 162 2,500 -840 Descending Chicago TRACON
10:07PM 41.7333 -87.6833 304° West 124 143 1,800 -720 Descending Chicago TRACON
10:08PM 41.7667 -87.7333 312° West 123 142 1,000 -780 Descending Chicago TRACON
10:11PM 41.7833 -87.7500 North  Level FlightAware Approximate